EWG69PA EDDL-LIMC
Flight info
| Callsign | EWG69PA |
|---|---|
| Flight time | N/A |
| Altitude | 35000 |
| Route | DODEN1T DODEN Y852 TUSUK DCT ULNOK L607 ABUKA/N0420F320 DCT KRH DCT NATOR/N0411F310 DCT TRA DCT RIPUS DCT GERSA DCT SOSON DCT DEGAD Z424 BASGO/N0405F290 Z424 AKASU/N0343F190 Z424 RIXUV |
| Aircraft | A320/M-SDE3FGHIRWY/LB1 |
Departure
| Time | 2026-02-17 12:56 |
|---|---|
| Airport | Düsseldorf Airport (EDDL) |
Arrival
| Time | N/A |
|---|---|
| Airport | Milan Malpensa International Airport (LIMC) |
| Time | Latitude | Longitude | Altitude | Speed | Heading |
|---|---|---|---|---|---|
| 2026-02-17 11:43 | 51.28108 | 6.76546 | 131 ft | 0 kts | 96° |
| 2026-02-17 12:45 | 51.28109 | 6.76539 | 130 ft | 2 kts | 96° |
| 2026-02-17 12:45 | 51.28111 | 6.76509 | 126 ft | 3 kts | 92° |
| 2026-02-17 12:46 | 51.28111 | 6.76479 | 128 ft | 2 kts | 86° |
| 2026-02-17 12:46 | 51.28110 | 6.76454 | 130 ft | 3 kts | 72° |
| 2026-02-17 12:46 | 51.28102 | 6.76432 | 129 ft | 3 kts | 22° |
| 2026-02-17 12:47 | 51.28069 | 6.76444 | 127 ft | 2 kts | 327° |
| 2026-02-17 12:47 | 51.28064 | 6.76449 | 128 ft | 0 kts | 327° |
| 2026-02-17 12:50 | 51.28076 | 6.76436 | 127 ft | 9 kts | 327° |
| 2026-02-17 12:50 | 51.28111 | 6.76418 | 126 ft | 4 kts | 2° |
| 2026-02-17 12:51 | 51.28233 | 6.76445 | 134 ft | 7 kts | 20° |
| 2026-02-17 12:51 | 51.28270 | 6.76494 | 130 ft | 7 kts | 30° |
| 2026-02-17 12:51 | 51.28317 | 6.76483 | 123 ft | 8 kts | 340° |
| 2026-02-17 12:51 | 51.28368 | 6.76520 | 131 ft | 9 kts | 50° |
| 2026-02-17 12:52 | 51.28404 | 6.76598 | 121 ft | 12 kts | 52° |
| 2026-02-17 12:52 | 51.28486 | 6.76768 | 129 ft | 22 kts | 53° |
| 2026-02-17 12:52 | 51.28578 | 6.76962 | 124 ft | 22 kts | 52° |
| 2026-02-17 12:52 | 51.28674 | 6.77162 | 126 ft | 23 kts | 53° |
| 2026-02-17 12:53 | 51.28775 | 6.77375 | 129 ft | 25 kts | 53° |
| 2026-02-17 12:53 | 51.28883 | 6.77602 | 126 ft | 26 kts | 52° |
| 2026-02-17 12:53 | 51.28997 | 6.77840 | 128 ft | 28 kts | 52° |
| 2026-02-17 12:53 | 51.29109 | 6.78077 | 133 ft | 16 kts | 53° |
| 2026-02-17 12:54 | 51.29157 | 6.78177 | 136 ft | 9 kts | 52° |
| 2026-02-17 12:54 | 51.29201 | 6.78215 | 137 ft | 7 kts | 9° |
| 2026-02-17 12:54 | 51.29267 | 6.78177 | 139 ft | 11 kts | 324° |
| 2026-02-17 12:55 | 51.29257 | 6.77919 | 139 ft | 20 kts | 233° |
| 2026-02-17 12:55 | 51.29114 | 6.77619 | 132 ft | 64 kts | 232° |
| 2026-02-17 12:55 | 51.28707 | 6.76762 | 131 ft | 126 kts | 233° |
| 2026-02-17 12:55 | 51.28077 | 6.75450 | 272 ft | 160 kts | 234° |
| 2026-02-17 12:56 | 51.27431 | 6.74078 | 1064 ft | 153 kts | 237° |
| 2026-02-17 12:56 | 51.26784 | 6.72658 | 1685 ft | 164 kts | 237° |
| 2026-02-17 12:56 | 51.26069 | 6.71117 | 2049 ft | 183 kts | 237° |
| 2026-02-17 12:56 | 51.25270 | 6.69380 | 2382 ft | 203 kts | 237° |
| 2026-02-17 12:57 | 51.24388 | 6.67473 | 2850 ft | 221 kts | 237° |
| 2026-02-17 12:57 | 51.23426 | 6.65416 | 3395 ft | 237 kts | 234° |
| 2026-02-17 12:57 | 51.22082 | 6.63779 | 4168 ft | 255 kts | 203° |
| 2026-02-17 12:57 | 51.20270 | 6.63530 | 5033 ft | 268 kts | 181° |
| 2026-02-17 12:58 | 51.18394 | 6.63769 | 5928 ft | 273 kts | 179° |
| 2026-02-17 12:58 | 51.16495 | 6.64183 | 6767 ft | 281 kts | 169° |
| 2026-02-17 12:58 | 51.14735 | 6.65660 | 7571 ft | 294 kts | 141° |
| 2026-02-17 12:59 | 51.13120 | 6.71542 | 9166 ft | 305 kts | 87° |
| 2026-02-17 12:59 | 51.13221 | 6.74932 | 9986 ft | 308 kts | 85° |
| 2026-02-17 12:59 | 51.13354 | 6.78438 | 10375 ft | 329 kts | 85° |
| 2026-02-17 12:59 | 51.13514 | 6.82261 | 10750 ft | 350 kts | 85° |
| 2026-02-17 13:00 | 51.13668 | 6.86110 | 11435 ft | 355 kts | 85° |
| 2026-02-17 13:00 | 51.13824 | 6.90056 | 12176 ft | 358 kts | 86° |
| 2026-02-17 13:00 | 51.13975 | 6.94044 | 12887 ft | 362 kts | 85° |
| 2026-02-17 13:00 | 51.14124 | 6.98065 | 13565 ft | 366 kts | 86° |
| 2026-02-17 13:01 | 51.14268 | 7.02126 | 14246 ft | 369 kts | 86° |
| 2026-02-17 13:01 | 51.14406 | 7.06212 | 14896 ft | 371 kts | 86° |
| 2026-02-17 13:01 | 51.14549 | 7.10336 | 15516 ft | 375 kts | 86° |
| 2026-02-17 13:01 | 51.14694 | 7.14493 | 16130 ft | 379 kts | 85° |
| 2026-02-17 13:02 | 51.14840 | 7.18702 | 16761 ft | 382 kts | 85° |
| 2026-02-17 13:02 | 51.14984 | 7.22958 | 17361 ft | 385 kts | 85° |
| 2026-02-17 13:02 | 51.15129 | 7.27237 | 17957 ft | 388 kts | 85° |
| 2026-02-17 13:03 | 51.15393 | 7.35906 | 19022 ft | 396 kts | 90° |
| 2026-02-17 13:03 | 51.15048 | 7.40286 | 19530 ft | 402 kts | 103° |
| 2026-02-17 13:03 | 51.14136 | 7.44509 | 20052 ft | 406 kts | 115° |
| 2026-02-17 13:03 | 51.12733 | 7.48434 | 20560 ft | 409 kts | 126° |
| 2026-02-17 13:04 | 51.10948 | 7.51873 | 21003 ft | 412 kts | 136° |
| 2026-02-17 13:04 | 51.08887 | 7.55053 | 21449 ft | 415 kts | 138° |
| 2026-02-17 13:04 | 51.06793 | 7.58260 | 21907 ft | 420 kts | 137° |
| 2026-02-17 13:04 | 51.04675 | 7.61491 | 22377 ft | 423 kts | 138° |
| 2026-02-17 13:05 | 51.02535 | 7.64733 | 22800 ft | 427 kts | 138° |
| 2026-02-17 13:05 | 51.00376 | 7.67999 | 23201 ft | 431 kts | 138° |
| 2026-02-17 13:05 | 50.98192 | 7.71306 | 23611 ft | 435 kts | 138° |
| 2026-02-17 13:05 | 50.95856 | 7.74374 | 23991 ft | 437 kts | 147° |
| 2026-02-17 13:06 | 50.93285 | 7.76980 | 24346 ft | 441 kts | 151° |
| 2026-02-17 13:06 | 50.90668 | 7.79553 | 24705 ft | 444 kts | 151° |
| 2026-02-17 13:06 | 50.88029 | 7.82147 | 25025 ft | 448 kts | 151° |
| 2026-02-17 13:07 | 50.82674 | 7.87406 | 25633 ft | 458 kts | 150° |
| 2026-02-17 13:07 | 50.79952 | 7.90073 | 25972 ft | 462 kts | 151° |
| 2026-02-17 13:07 | 50.77205 | 7.92762 | 26298 ft | 466 kts | 151° |
| 2026-02-17 13:07 | 50.74436 | 7.95470 | 26624 ft | 470 kts | 151° |
| 2026-02-17 13:08 | 50.71636 | 7.98206 | 26885 ft | 474 kts | 151° |
| 2026-02-17 13:08 | 50.68818 | 8.00952 | 27161 ft | 479 kts | 151° |
| 2026-02-17 13:08 | 50.65986 | 8.03714 | 27527 ft | 479 kts | 150° |
| 2026-02-17 13:08 | 50.63086 | 8.06345 | 27855 ft | 480 kts | 157° |
| 2026-02-17 13:09 | 50.60011 | 8.08335 | 28117 ft | 480 kts | 167° |
| 2026-02-17 13:09 | 50.56773 | 8.09614 | 28412 ft | 477 kts | 175° |
| 2026-02-17 13:09 | 50.53481 | 8.10204 | 28685 ft | 477 kts | 181° |
| 2026-02-17 13:09 | 50.50165 | 8.10624 | 28962 ft | 480 kts | 181° |
| 2026-02-17 13:10 | 50.46818 | 8.11064 | 29190 ft | 484 kts | 182° |
| 2026-02-17 13:10 | 50.43458 | 8.11505 | 29439 ft | 488 kts | 182° |
| 2026-02-17 13:10 | 50.40104 | 8.11946 | 29668 ft | 492 kts | 181° |
| 2026-02-17 13:11 | 50.33237 | 8.12848 | 30115 ft | 498 kts | 182° |
| 2026-02-17 13:11 | 50.29774 | 8.13308 | 30334 ft | 501 kts | 182° |
| 2026-02-17 13:11 | 50.26281 | 8.13766 | 30587 ft | 505 kts | 182° |
| 2026-02-17 13:11 | 50.22770 | 8.14221 | 30842 ft | 507 kts | 182° |
| 2026-02-17 13:12 | 50.19246 | 8.14683 | 31094 ft | 511 kts | 181° |
| 2026-02-17 13:12 | 50.15703 | 8.15588 | 31364 ft | 520 kts | 172° |
| 2026-02-17 13:12 | 50.12199 | 8.17017 | 31666 ft | 518 kts | 175° |
| 2026-02-17 13:12 | 50.08656 | 8.17745 | 31949 ft | 514 kts | 182° |
| 2026-02-17 13:13 | 50.05101 | 8.18154 | 32288 ft | 511 kts | 184° |
| 2026-02-17 13:13 | 50.01560 | 8.18432 | 32617 ft | 510 kts | 185° |
| 2026-02-17 13:13 | 49.98011 | 8.18677 | 32932 ft | 510 kts | 185° |
| 2026-02-17 13:13 | 49.94468 | 8.18950 | 33215 ft | 511 kts | 184° |
| 2026-02-17 13:14 | 49.90906 | 8.19284 | 33477 ft | 513 kts | 184° |
| 2026-02-17 13:14 | 49.87161 | 8.19695 | 33773 ft | 515 kts | 183° |
| 2026-02-17 13:14 | 49.83768 | 8.20102 | 34102 ft | 515 kts | 182° |
| 2026-02-17 13:15 | 49.76637 | 8.21008 | 34696 ft | 514 kts | 182° |
| 2026-02-17 13:15 | 49.73073 | 8.21443 | 34824 ft | 513 kts | 183° |
| 2026-02-17 13:15 | 49.65997 | 8.22254 | 34863 ft | 508 kts | 183° |
| 2026-02-17 13:16 | 49.58958 | 8.23021 | 34859 ft | 507 kts | 183° |
| 2026-02-17 13:16 | 49.51919 | 8.23790 | 34861 ft | 507 kts | 183° |
| 2026-02-17 13:17 | 49.44866 | 8.24589 | 34858 ft | 508 kts | 183° |
| 2026-02-17 13:17 | 49.37821 | 8.25397 | 34857 ft | 508 kts | 183° |
| 2026-02-17 13:18 | 49.30775 | 8.26185 | 34856 ft | 508 kts | 184° |
| 2026-02-17 13:19 | 49.20187 | 8.27366 | 34851 ft | 509 kts | 183° |
| 2026-02-17 13:19 | 49.13112 | 8.28152 | 34856 ft | 510 kts | 184° |
| 2026-02-17 13:20 | 49.06059 | 8.28940 | 34856 ft | 508 kts | 184° |
| 2026-02-17 13:20 | 48.99029 | 8.29707 | 34859 ft | 510 kts | 184° |
| 2026-02-17 13:21 | 48.91904 | 8.30499 | 34864 ft | 511 kts | 184° |
| 2026-02-17 13:21 | 48.84841 | 8.31265 | 34877 ft | 513 kts | 184° |
| 2026-02-17 13:22 | 48.78166 | 8.31984 | 34883 ft | 514 kts | 184° |